Santa Angelina — D5HS5 — position and weather

sailwx.info

Track history (hours):
 
Tides and Currents Weather Stations Pressure Air Temp Water Temp Dewpoint Dewpoint Depression Visibility Wind Speed Wind Dir Waves Ship Positions

Santa Angelina

Last reported at 2018-Feb-15 15:36 UTC. Time now 2018-Feb-19 06:10 UTC.
Position N 27°51' W 016°29'.

Length 189 m; draft 12 m.

Type: Cargo ship. MMSI: 636016769.

Date/timePositionNaut miles runAvg speedWind from/ knotsBaromVisibWave heightAir tempDewpointWater temp
2018-Feb-15 15:36N 27°51' W 016°29'112.8
2018-Feb-15 15:30N 27°52' W 016°28'1912.4
2018-Feb-15 13:58N 28°07' W 016°14'612.3
2018-Feb-15 13:30N 28°11' W 016°10'612.4
2018-Feb-15 13:00N 28°16' W 016°06'612.3
2018-Feb-15 12:30N 28°21' W 016°01'612.4
2018-Feb-15 12:00N 28°25' W 015°57'612.5
2018-Feb-15 11:30N 28°30' W 015°52'612.3
2018-Feb-15 11:00N 28°35' W 015°47'612.2
2018-Feb-15 10:30N 28°40' W 015°43'612.2
2018-Feb-15 10:00N 28°45' W 015°39'612.2
2018-Feb-15 09:30N 28°49' W 015°34'712.2
2018-Feb-15 08:58N 28°54' W 015°29'612.3
2018-Feb-15 08:30N 28°58' W 015°25'712.2
2018-Feb-15 07:58N 29°04' W 015°21'612.0
2018-Feb-15 07:30N 29°08' W 015°16'612.0
2018-Feb-15 07:00N 29°14' W 015°15'612.3
2018-Feb-15 06:30N 29°20' W 015°13'712.4
2018-Feb-15 05:58N 29°26' W 015°12'612.8
2018-Feb-15 05:30N 29°32' W 015°10'612.6
2018-Feb-15 05:00N 29°38' W 015°09'612.2
2018-Feb-15 04:30N 29°44' W 015°07'612.2
2018-Feb-15 04:00N 29°50' W 015°05'1012.4
2018-Feb-15 03:12N 29°60' W 015°03'312.4
2018-Feb-15 02:59N 30°02' W 015°02'912.1
2018-Feb-15 02:12N 30°11' W 014°60'312.2
2018-Feb-15 01:56N 30°15' W 014°59'  
2018-Feb-10 16:23N 48°55' W 005°45'104 9.9
2018-Feb-10 05:52N 49°48' W 003°28'411.2
2018-Feb-10 05:30N 49°50' W 003°23'611.1
2018-Feb-10 05:00N 49°53' W 003°15'610.9
2018-Feb-10 04:30N 49°56' W 003°08'510.7
2018-Feb-10 04:00N 49°59' W 003°01'510.6
2018-Feb-10 03:30N 50°00' W 002°53'510.5
2018-Feb-10 03:00N 50°02' W 002°45'510.4
2018-Feb-10 02:30N 50°03' W 002°37'2510.8
2018-Feb-10 00:09N 50°10' W 001°59'411.5
2018-Feb-09 23:49N 50°11' W 001°53'411.7
2018-Feb-09 23:30N 50°12' W 001°48'611.9
2018-Feb-09 23:00N 50°14' W 001°39'312.1
2018-Feb-09 22:46N 50°14' W 001°35'3912.0
2018-Feb-09 19:30N 50°25' W 000°35'1111.0
2018-Feb-09 18:30N 50°28' W 000°19'510.9
2018-Feb-09 18:00N 50°30' W 000°11'510.5
2018-Feb-09 17:30N 50°31' W 000°03'510.0
2018-Feb-09 17:00N 50°32' E 000°05'5 9.7
2018-Feb-09 16:30N 50°34' E 000°12'14 9.6
2018-Feb-09 15:00N 50°38' E 000°34'5 9.6
2018-Feb-09 14:30N 50°39' E 000°41'510.5
2018-Feb-09 14:00N 50°43' E 000°47'510.8
2018-Feb-09 13:30N 50°46' E 000°54'3311.0
2018-Feb-09 10:30N 51°08' E 001°34'4 8.7
2018-Feb-09 10:00N 51°10' E 001°39'4 8.6
2018-Feb-09 09:30N 51°13' E 001°44'4 8.3
2018-Feb-09 09:00N 51°16' E 001°48'4 8.2
2018-Feb-09 08:30N 51°20' E 001°51'4 8.4
2018-Feb-09 08:00N 51°24' E 001°55'4 8.3
2018-Feb-09 07:30N 51°27' E 001°58'4 8.2
2018-Feb-09 07:00N 51°31' E 002°02'281 9.9
2018-Feb-08 02:30N 53°57' E 008°39'9 8.8
2018-Feb-08 01:30N 53°50' E 008°49'611.9
2018-Feb-08 01:00N 53°51' E 008°59'611.4
2018-Feb-08 00:30N 53°53' E 009°08'5 9.2
2018-Feb-08 00:01N 53°52' E 009°16'612.9
2018-Feb-07 23:31N 53°47' E 009°23'613.0
2018-Feb-07 23:00N 53°42' E 009°30'612.3
2018-Feb-07 22:30N 53°37' E 009°34'611.5
2018-Feb-07 22:00N 53°34' E 009°43'510.1
2018-Feb-07 21:31N 53°33' E 009°51'5 0.4
2018-Feb-07 09:30N 53°30' E 009°58'0 0.0
2018-Feb-07 09:00N 53°30' E 009°58'0 0.0
2018-Feb-07 08:30N 53°30' E 009°58'0 0.0
2018-Feb-07 08:00N 53°30' E 009°58'0 0.0
2018-Feb-07 07:30N 53°30' E 009°58'0 0.0
2018-Feb-07 07:00N 53°30' E 009°58'0 0.0
2018-Feb-07 06:30N 53°30' E 009°58'0 0.0
2018-Feb-07 06:00N 53°30' E 009°58'0 0.0
2018-Feb-07 05:30N 53°30' E 009°58'0 0.0
2018-Feb-07 05:00N 53°30' E 009°58'0 0.0
2018-Feb-07 04:30N 53°30' E 009°58'0 0.0
2018-Feb-07 04:00N 53°30' E 009°58'0 0.0
2018-Feb-07 03:30N 53°30' E 009°58'0 0.0
2018-Feb-07 03:00N 53°30' E 009°58'0 0.0
2018-Feb-07 02:30N 53°30' E 009°58'0 0.0
2018-Feb-07 02:00N 53°30' E 009°58'0 0.0
2018-Feb-07 01:30N 53°30' E 009°58'0 0.0
2018-Feb-07 01:00N 53°30' E 009°58'0 0.0
2018-Feb-07 00:30N 53°30' E 009°58'0 0.0
2018-Feb-07 00:00N 53°30' E 009°58'0 0.0
2018-Feb-06 23:30N 53°30' E 009°58'0 0.0
2018-Feb-06 23:00N 53°30' E 009°58'0 0.0
2018-Feb-06 22:30N 53°30' E 009°58'0 0.0
2018-Feb-06 22:00N 53°30' E 009°58'0 0.0
2018-Feb-06 21:30N 53°30' E 009°58'0 0.0
2018-Feb-06 21:00N 53°30' E 009°58'0 0.0
2018-Feb-06 20:30N 53°30' E 009°58'0 0.0
2018-Feb-06 20:00N 53°30' E 009°58'0 0.0
2018-Feb-06 19:30N 53°30' E 009°58'0 0.0
2018-Feb-06 19:00N 53°30' E 009°58'0 0.0
2018-Feb-06 18:30N 53°30' E 009°58'0 0.0
2018-Feb-06 18:00N 53°30' E 009°58'0 0.0
2018-Feb-06 17:30N 53°30' E 009°58'0 0.0
2018-Feb-06 17:00N 53°30' E 009°58'0 0.0
2018-Feb-06 16:30N 53°30' E 009°58'0 0.0
2018-Feb-06 16:00N 53°30' E 009°58'0 0.0
2018-Feb-06 15:30N 53°30' E 009°58'0 0.0
2018-Feb-06 15:00N 53°30' E 009°58'0 0.0
2018-Feb-06 14:30N 53°30' E 009°58'0 0.0
2018-Feb-06 14:00N 53°30' E 009°58'0 0.0
2018-Feb-06 13:30N 53°30' E 009°58'0 0.0
2018-Feb-06 13:00N 53°30' E 009°58'0 0.0
2018-Feb-06 12:30N 53°30' E 009°58'0 0.0
2018-Feb-06 12:00N 53°30' E 009°58'0 0.0
2018-Feb-06 11:30N 53°30' E 009°58'0 0.0
2018-Feb-06 11:00N 53°30' E 009°58'0 0.0
2018-Feb-06 10:30N 53°30' E 009°58'0 0.0
2018-Feb-06 10:00N 53°30' E 009°58'0 0.0
2018-Feb-06 09:30N 53°30' E 009°58'0 0.0
2018-Feb-06 09:00N 53°30' E 009°58'0 0.0
2018-Feb-06 08:30N 53°30' E 009°58'0 0.0
2018-Feb-06 08:00N 53°30' E 009°58'0 0.0
2018-Feb-06 07:30N 53°30' E 009°58'0 0.0
2018-Feb-06 07:00N 53°30' E 009°58'0 0.0
2018-Feb-06 06:30N 53°30' E 009°58'0 0.0
2018-Feb-06 06:00N 53°30' E 009°58'0 0.0
2018-Feb-06 05:30N 53°30' E 009°58'0 0.0
2018-Feb-06 05:00N 53°30' E 009°58'0 0.0
2018-Feb-06 04:30N 53°30' E 009°58'0 0.0
2018-Feb-06 04:00N 53°30' E 009°58'0 0.0
2018-Feb-06 03:30N 53°30' E 009°58'0 0.0
2018-Feb-06 03:00N 53°30' E 009°58'0 0.0
2018-Feb-06 02:30N 53°30' E 009°58'0 0.0
2018-Feb-06 02:00N 53°30' E 009°58'0 0.0
2018-Feb-06 01:30N 53°30' E 009°58'0 0.0
2018-Feb-06 01:00N 53°30' E 009°58'0 0.0
2018-Feb-06 00:30N 53°30' E 009°58'0 0.0
2018-Feb-06 00:00N 53°30' E 009°58'0 0.0
2018-Feb-05 23:30N 53°30' E 009°58'0 0.0
2018-Feb-05 23:00N 53°30' E 009°58'0 0.0
2018-Feb-05 22:30N 53°30' E 009°58'0 0.0
2018-Feb-05 22:00N 53°30' E 009°58'0 0.0
2018-Feb-05 21:30N 53°30' E 009°58'0 0.0
2018-Feb-05 21:00N 53°30' E 009°58'0 0.0
2018-Feb-05 20:30N 53°30' E 009°58'0 0.0
2018-Feb-05 20:00N 53°30' E 009°58'0 0.0
2018-Feb-05 19:30N 53°30' E 009°58'0 0.0
2018-Feb-05 19:00N 53°30' E 009°58'0 0.0
2018-Feb-05 18:30N 53°30' E 009°58'0 0.0
2018-Feb-05 18:00N 53°30' E 009°58'0 0.0
2018-Feb-05 17:30N 53°30' E 009°58'0 0.0
2018-Feb-05 17:00N 53°30' E 009°58'0 0.0
2018-Feb-05 16:30N 53°30' E 009°58'0 0.0
2018-Feb-05 16:00N 53°30' E 009°58'  
Track history (hours):
 
Tides and Currents Weather Stations Pressure Air Temp Water Temp Dewpoint Dewpoint Depression Visibility Wind Speed Wind Dir Waves Ship Positions

Santa Angelina

Last reported at 2018-Feb-15 15:36 UTC. Time now 2018-Feb-19 06:10 UTC.
Position N 27°51' W 016°29'.

Length 189 m; draft 12 m.

Type: Cargo ship. MMSI: 636016769.

Date/timePositionNaut miles runAvg speedWind from/ knotsBaromVisibWave heightAir tempDewpointWater temp
2018-Feb-15 15:36N 27°51' W 016°29'112.8
2018-Feb-15 15:30N 27°52' W 016°28'1912.4
2018-Feb-15 13:58N 28°07' W 016°14'612.3
2018-Feb-15 13:30N 28°11' W 016°10'612.4
2018-Feb-15 13:00N 28°16' W 016°06'612.3
2018-Feb-15 12:30N 28°21' W 016°01'612.4
2018-Feb-15 12:00N 28°25' W 015°57'612.5
2018-Feb-15 11:30N 28°30' W 015°52'612.3
2018-Feb-15 11:00N 28°35' W 015°47'612.2
2018-Feb-15 10:30N 28°40' W 015°43'612.2
2018-Feb-15 10:00N 28°45' W 015°39'612.2
2018-Feb-15 09:30N 28°49' W 015°34'712.2
2018-Feb-15 08:58N 28°54' W 015°29'612.3
2018-Feb-15 08:30N 28°58' W 015°25'712.2
2018-Feb-15 07:58N 29°04' W 015°21'612.0
2018-Feb-15 07:30N 29°08' W 015°16'612.0
2018-Feb-15 07:00N 29°14' W 015°15'612.3
2018-Feb-15 06:30N 29°20' W 015°13'712.4
2018-Feb-15 05:58N 29°26' W 015°12'612.8
2018-Feb-15 05:30N 29°32' W 015°10'612.6
2018-Feb-15 05:00N 29°38' W 015°09'612.2
2018-Feb-15 04:30N 29°44' W 015°07'612.2
2018-Feb-15 04:00N 29°50' W 015°05'1012.4
2018-Feb-15 03:12N 29°60' W 015°03'312.4
2018-Feb-15 02:59N 30°02' W 015°02'912.1
2018-Feb-15 02:12N 30°11' W 014°60'312.2
2018-Feb-15 01:56N 30°15' W 014°59'  
2018-Feb-10 16:23N 48°55' W 005°45'104 9.9
2018-Feb-10 05:52N 49°48' W 003°28'411.2
2018-Feb-10 05:30N 49°50' W 003°23'611.1
2018-Feb-10 05:00N 49°53' W 003°15'610.9
2018-Feb-10 04:30N 49°56' W 003°08'510.7
2018-Feb-10 04:00N 49°59' W 003°01'510.6
2018-Feb-10 03:30N 50°00' W 002°53'510.5
2018-Feb-10 03:00N 50°02' W 002°45'510.4
2018-Feb-10 02:30N 50°03' W 002°37'2510.8
2018-Feb-10 00:09N 50°10' W 001°59'411.5
2018-Feb-09 23:49N 50°11' W 001°53'411.7
2018-Feb-09 23:30N 50°12' W 001°48'611.9
2018-Feb-09 23:00N 50°14' W 001°39'312.1
2018-Feb-09 22:46N 50°14' W 001°35'3912.0
2018-Feb-09 19:30N 50°25' W 000°35'1111.0
2018-Feb-09 18:30N 50°28' W 000°19'510.9
2018-Feb-09 18:00N 50°30' W 000°11'510.5
2018-Feb-09 17:30N 50°31' W 000°03'510.0
2018-Feb-09 17:00N 50°32' E 000°05'5 9.7
2018-Feb-09 16:30N 50°34' E 000°12'14 9.6
2018-Feb-09 15:00N 50°38' E 000°34'5 9.6
2018-Feb-09 14:30N 50°39' E 000°41'510.5
2018-Feb-09 14:00N 50°43' E 000°47'510.8
2018-Feb-09 13:30N 50°46' E 000°54'3311.0
2018-Feb-09 10:30N 51°08' E 001°34'4 8.7
2018-Feb-09 10:00N 51°10' E 001°39'4 8.6
2018-Feb-09 09:30N 51°13' E 001°44'4 8.3
2018-Feb-09 09:00N 51°16' E 001°48'4 8.2
2018-Feb-09 08:30N 51°20' E 001°51'4 8.4
2018-Feb-09 08:00N 51°24' E 001°55'4 8.3
2018-Feb-09 07:30N 51°27' E 001°58'4 8.2
2018-Feb-09 07:00N 51°31' E 002°02'281 9.9
2018-Feb-08 02:30N 53°57' E 008°39'9 8.8
2018-Feb-08 01:30N 53°50' E 008°49'611.9
2018-Feb-08 01:00N 53°51' E 008°59'611.4
2018-Feb-08 00:30N 53°53' E 009°08'5 9.2
2018-Feb-08 00:01N 53°52' E 009°16'612.9
2018-Feb-07 23:31N 53°47' E 009°23'613.0
2018-Feb-07 23:00N 53°42' E 009°30'612.3
2018-Feb-07 22:30N 53°37' E 009°34'611.5
2018-Feb-07 22:00N 53°34' E 009°43'510.1
2018-Feb-07 21:31N 53°33' E 009°51'5 0.4
2018-Feb-07 09:30N 53°30' E 009°58'0 0.0
2018-Feb-07 09:00N 53°30' E 009°58'0 0.0
2018-Feb-07 08:30N 53°30' E 009°58'0 0.0
2018-Feb-07 08:00N 53°30' E 009°58'0 0.0
2018-Feb-07 07:30N 53°30' E 009°58'0 0.0
2018-Feb-07 07:00N 53°30' E 009°58'0 0.0
2018-Feb-07 06:30N 53°30' E 009°58'0 0.0
2018-Feb-07 06:00N 53°30' E 009°58'0 0.0
2018-Feb-07 05:30N 53°30' E 009°58'0 0.0
2018-Feb-07 05:00N 53°30' E 009°58'0 0.0
2018-Feb-07 04:30N 53°30' E 009°58'0 0.0
2018-Feb-07 04:00N 53°30' E 009°58'0 0.0
2018-Feb-07 03:30N 53°30' E 009°58'0 0.0
2018-Feb-07 03:00N 53°30' E 009°58'0 0.0
2018-Feb-07 02:30N 53°30' E 009°58'0 0.0
2018-Feb-07 02:00N 53°30' E 009°58'0 0.0
2018-Feb-07 01:30N 53°30' E 009°58'0 0.0
2018-Feb-07 01:00N 53°30' E 009°58'0 0.0
2018-Feb-07 00:30N 53°30' E 009°58'0 0.0
2018-Feb-07 00:00N 53°30' E 009°58'0 0.0
2018-Feb-06 23:30N 53°30' E 009°58'0 0.0
2018-Feb-06 23:00N 53°30' E 009°58'0 0.0
2018-Feb-06 22:30N 53°30' E 009°58'0 0.0
2018-Feb-06 22:00N 53°30' E 009°58'0 0.0
2018-Feb-06 21:30N 53°30' E 009°58'0 0.0
2018-Feb-06 21:00N 53°30' E 009°58'0 0.0
2018-Feb-06 20:30N 53°30' E 009°58'0 0.0
2018-Feb-06 20:00N 53°30' E 009°58'0 0.0
2018-Feb-06 19:30N 53°30' E 009°58'0 0.0
2018-Feb-06 19:00N 53°30' E 009°58'0 0.0
2018-Feb-06 18:30N 53°30' E 009°58'0 0.0
2018-Feb-06 18:00N 53°30' E 009°58'0 0.0
2018-Feb-06 17:30N 53°30' E 009°58'0 0.0
2018-Feb-06 17:00N 53°30' E 009°58'0 0.0
2018-Feb-06 16:30N 53°30' E 009°58'0 0.0
2018-Feb-06 16:00N 53°30' E 009°58'0 0.0
2018-Feb-06 15:30N 53°30' E 009°58'0 0.0
2018-Feb-06 15:00N 53°30' E 009°58'0 0.0
2018-Feb-06 14:30N 53°30' E 009°58'0 0.0
2018-Feb-06 14:00N 53°30' E 009°58'0 0.0
2018-Feb-06 13:30N 53°30' E 009°58'0 0.0
2018-Feb-06 13:00N 53°30' E 009°58'0 0.0
2018-Feb-06 12:30N 53°30' E 009°58'0 0.0
2018-Feb-06 12:00N 53°30' E 009°58'0 0.0
2018-Feb-06 11:30N 53°30' E 009°58'0 0.0
2018-Feb-06 11:00N 53°30' E 009°58'0 0.0
2018-Feb-06 10:30N 53°30' E 009°58'0 0.0
2018-Feb-06 10:00N 53°30' E 009°58'0 0.0
2018-Feb-06 09:30N 53°30' E 009°58'0 0.0
2018-Feb-06 09:00N 53°30' E 009°58'0 0.0
2018-Feb-06 08:30N 53°30' E 009°58'0 0.0
2018-Feb-06 08:00N 53°30' E 009°58'0 0.0
2018-Feb-06 07:30N 53°30' E 009°58'0 0.0
2018-Feb-06 07:00N 53°30' E 009°58'0 0.0
2018-Feb-06 06:30N 53°30' E 009°58'0 0.0
2018-Feb-06 06:00N 53°30' E 009°58'0 0.0
2018-Feb-06 05:30N 53°30' E 009°58'0 0.0
2018-Feb-06 05:00N 53°30' E 009°58'0 0.0
2018-Feb-06 04:30N 53°30' E 009°58'0 0.0
2018-Feb-06 04:00N 53°30' E 009°58'0 0.0
2018-Feb-06 03:30N 53°30' E 009°58'0 0.0
2018-Feb-06 03:00N 53°30' E 009°58'0 0.0
2018-Feb-06 02:30N 53°30' E 009°58'0 0.0
2018-Feb-06 02:00N 53°30' E 009°58'0 0.0
2018-Feb-06 01:30N 53°30' E 009°58'0 0.0
2018-Feb-06 01:00N 53°30' E 009°58'0 0.0
2018-Feb-06 00:30N 53°30' E 009°58'0 0.0
2018-Feb-06 00:00N 53°30' E 009°58'0 0.0
2018-Feb-05 23:30N 53°30' E 009°58'0 0.0
2018-Feb-05 23:00N 53°30' E 009°58'0 0.0
2018-Feb-05 22:30N 53°30' E 009°58'0 0.0
2018-Feb-05 22:00N 53°30' E 009°58'0 0.0
2018-Feb-05 21:30N 53°30' E 009°58'0 0.0
2018-Feb-05 21:00N 53°30' E 009°58'0 0.0
2018-Feb-05 20:30N 53°30' E 009°58'0 0.0
2018-Feb-05 20:00N 53°30' E 009°58'0 0.0
2018-Feb-05 19:30N 53°30' E 009°58'0 0.0
2018-Feb-05 19:00N 53°30' E 009°58'0 0.0
2018-Feb-05 18:30N 53°30' E 009°58'0 0.0
2018-Feb-05 18:00N 53°30' E 009°58'0 0.0
2018-Feb-05 17:30N 53°30' E 009°58'0 0.0
2018-Feb-05 17:00N 53°30' E 009°58'0 0.0
2018-Feb-05 16:30N 53°30' E 009°58'0 0.0
2018-Feb-05 16:00N 53°30' E 009°58'  

Dump ship's entire track history